createdAt,value
2023-01-13T00:01:26.308Z,15.55
2023-01-13T00:03:53.956Z,5.68
2023-01-13T00:06:25.908Z,6.43
2023-01-13T00:08:54.519Z,3.63
2023-01-13T00:11:22.358Z,4.70
2023-01-13T00:13:49.903Z,3.72
2023-01-13T00:16:19.125Z,4.95
2023-01-13T00:18:47.074Z,7.35
2023-01-13T00:21:20.092Z,5.25
2023-01-13T00:23:48.002Z,10.32
2023-01-13T00:26:21.888Z,4.63
2023-01-13T00:28:49.922Z,5.80
2023-01-13T00:31:21.132Z,3.50
2023-01-13T00:33:52.154Z,3.53
2023-01-13T00:36:21.001Z,9.13
2023-01-13T00:38:49.139Z,4.72
2023-01-13T00:41:18.494Z,4.78
2023-01-13T00:43:46.616Z,4.90
2023-01-13T00:46:16.674Z,4.05
2023-01-13T00:48:44.079Z,4.00
2023-01-13T00:51:20.474Z,4.35
2023-01-13T01:01:23.954Z,6.22
2023-01-13T01:03:52.761Z,2.60
2023-01-13T01:06:23.558Z,4.75
2023-01-13T01:08:51.420Z,3.75
2023-01-13T01:11:23.256Z,4.43
2023-01-13T01:13:55.051Z,4.93
2023-01-13T01:16:25.106Z,4.95
2023-01-13T01:18:54.513Z,3.67
2023-01-13T01:21:23.609Z,4.25
2023-01-13T01:23:51.539Z,3.97
2023-01-13T01:26:22.010Z,3.65
2023-01-13T01:28:49.743Z,4.43
2023-01-13T01:31:25.420Z,5.05
2023-01-13T01:33:53.285Z,3.45
2023-01-13T01:36:21.571Z,2.92
2023-01-13T01:38:49.983Z,5.15
2023-01-13T01:41:21.380Z,2.45
2023-01-13T01:44:00.282Z,4.90
2023-01-13T01:46:40.085Z,3.97
2023-01-13T01:49:16.879Z,3.75
2023-01-13T01:51:58.207Z,6.13
2023-01-13T01:54:36.400Z,3.83
2023-01-13T01:57:04.553Z,2.78
2023-01-13T01:59:33.693Z,3.78
2023-01-13T02:02:01.489Z,3.15
2023-01-13T02:04:33.562Z,3.65
2023-01-13T02:07:03.521Z,4.13
2023-01-13T02:09:31.378Z,4.03
2023-01-13T02:12:17.601Z,6.88
2023-01-13T02:14:45.873Z,5.82
2023-01-13T02:17:22.507Z,10.32
2023-01-13T02:20:27.014Z,10.65
2023-01-13T02:23:35.436Z,3.28
2023-01-13T02:26:11.030Z,3.58
2023-01-13T02:29:18.873Z,5.20
2023-01-13T02:31:48.773Z,7.72
2023-01-13T02:34:53.740Z,4.68
2023-01-13T02:37:29.137Z,6.45
2023-01-13T02:40:03.157Z,7.63
2023-01-13T02:42:55.016Z,3.05
2023-01-13T02:45:31.365Z,2.72
2023-01-13T02:50:40.217Z,5.53
2023-01-13T02:53:46.219Z,4.10
2023-01-13T02:56:16.634Z,3.50
2023-01-13T02:58:45.731Z,4.50
2023-01-13T03:01:13.541Z,3.75
2023-01-13T03:03:41.542Z,2.63
2023-01-13T03:06:17.714Z,4.72
2023-01-13T03:08:58.280Z,4.10
2023-01-13T03:11:32.694Z,4.10
2023-01-13T03:14:20.034Z,5.03
2023-01-13T03:17:02.475Z,6.75
2023-01-13T03:20:06.988Z,3.22
2023-01-13T03:22:44.751Z,3.90
2023-01-13T03:25:25.894Z,4.00
2023-01-13T03:28:01.395Z,5.82
2023-01-13T03:30:45.186Z,3.50
2023-01-13T03:33:31.661Z,4.07
2023-01-13T03:36:05.836Z,2.35
2023-01-13T03:38:40.485Z,4.95
2023-01-13T03:41:23.632Z,4.47
2023-01-13T03:44:25.756Z,6.90
2023-01-13T03:47:20.068Z,5.40
2023-01-13T03:50:09.090Z,14.00
2023-01-13T03:52:40.865Z,2.45
2023-01-13T03:55:12.651Z,6.45
2023-01-13T03:57:46.973Z,6.20
2023-01-13T04:00:15.199Z,3.95
2023-01-13T04:02:50.238Z,6.95
2023-01-13T04:05:18.448Z,2.22
2023-01-13T04:08:18.761Z,5.07
2023-01-13T04:10:52.688Z,9.10
2023-01-13T04:13:24.792Z,4.72
2023-01-13T04:15:52.544Z,5.50
2023-01-13T04:18:26.920Z,3.78
2023-01-13T04:20:56.898Z,3.03
2023-01-13T04:23:24.993Z,5.30
2023-01-13T04:25:53.217Z,5.57
2023-01-13T04:28:21.563Z,3.33
2023-01-13T04:30:49.808Z,3.00
2023-01-13T04:33:19.173Z,2.88
2023-01-13T04:35:47.999Z,4.72
2023-01-13T04:38:17.462Z,2.92
2023-01-13T04:40:45.057Z,13.32
2023-01-13T04:43:13.084Z,4.15
2023-01-13T04:45:42.249Z,5.60
2023-01-13T04:48:10.056Z,3.83
2023-01-13T04:50:37.358Z,5.45
2023-01-13T04:53:05.897Z,8.95
2023-01-13T04:55:33.694Z,8.60
2023-01-13T04:58:05.969Z,2.65
2023-01-13T05:00:33.482Z,9.88
2023-01-13T05:03:01.074Z,4.47
2023-01-13T05:05:29.542Z,5.85
2023-01-13T05:07:57.193Z,6.60
2023-01-13T05:10:24.880Z,3.75
2023-01-13T05:13:10.660Z,5.70
2023-01-13T05:15:58.878Z,4.10
2023-01-13T05:18:27.004Z,6.25
2023-01-13T05:20:54.562Z,10.38
2023-01-13T05:23:40.410Z,4.30
2023-01-13T05:26:08.189Z,4.97
2023-01-13T05:28:35.935Z,3.75
2023-01-13T05:31:03.634Z,5.05
2023-01-13T05:33:31.511Z,3.20
2023-01-13T05:36:03.042Z,6.47
2023-01-13T05:38:30.731Z,5.72
2023-01-13T05:41:18.328Z,7.53
2023-01-13T05:43:45.942Z,12.50
2023-01-13T05:46:13.494Z,27.17
2023-01-13T05:48:42.724Z,19.38
2023-01-13T05:51:12.297Z,9.50
2023-01-13T05:53:42.843Z,16.33
2023-01-13T05:56:11.233Z,25.45
2023-01-13T05:58:38.820Z,17.95
2023-01-13T06:01:08.152Z,36.58
2023-01-13T06:03:36.330Z,31.00
2023-01-13T06:06:04.558Z,16.27
2023-01-13T06:08:33.731Z,9.10
2023-01-13T06:11:01.382Z,35.83
2023-01-13T06:13:29.207Z,52.13
2023-01-13T06:15:58.354Z,49.40
2023-01-13T06:18:26.153Z,18.23
2023-01-13T06:20:54.113Z,30.63
2023-01-13T06:23:21.442Z,23.48
2023-01-13T06:25:59.132Z,50.20
2023-01-13T06:28:26.952Z,31.50
2023-01-13T06:31:06.406Z,26.05
2023-01-13T06:33:55.469Z,19.83
2023-01-13T06:36:40.092Z,34.78
2023-01-13T06:39:09.463Z,45.03
2023-01-13T06:41:55.342Z,35.70
2023-01-13T06:44:24.277Z,51.33
2023-01-13T06:46:52.801Z,47.50
2023-01-13T06:49:21.684Z,25.90
2023-01-13T06:51:49.460Z,51.88
2023-01-13T06:54:18.086Z,36.70
2023-01-13T06:56:45.949Z,36.15
2023-01-13T06:59:13.306Z,32.47
2023-01-13T07:01:42.141Z,70.72
2023-01-13T07:04:10.037Z,38.60
2023-01-13T07:06:37.719Z,67.40
2023-01-13T07:09:06.933Z,67.38
2023-01-13T07:11:34.515Z,51.72
2023-01-13T07:14:20.358Z,32.13
2023-01-13T07:16:48.187Z,64.85
2023-01-13T07:19:23.195Z,26.27
2023-01-13T07:21:52.521Z,38.22
2023-01-13T07:24:20.299Z,25.17
2023-01-13T07:26:47.991Z,51.40
2023-01-13T07:29:15.343Z,19.95
2023-01-13T07:31:43.136Z,35.05
2023-01-13T07:34:10.845Z,91.65
2023-01-13T07:36:39.360Z,85.22
2023-01-13T07:39:06.920Z,63.25
2023-01-13T07:41:53.034Z,66.80
2023-01-13T07:44:21.124Z,83.45
2023-01-13T07:46:48.857Z,44.53
2023-01-13T07:49:16.498Z,29.40
2023-01-13T07:51:44.326Z,20.58
2023-01-13T07:54:11.947Z,76.85
2023-01-13T07:56:39.552Z,47.90
2023-01-13T07:59:07.205Z,75.20
2023-01-13T08:01:34.464Z,45.20
2023-01-13T08:04:02.188Z,71.82
2023-01-13T08:06:29.992Z,64.18
2023-01-13T08:08:57.776Z,39.22
2023-01-13T08:11:25.361Z,57.08
2023-01-13T08:13:57.149Z,64.95
2023-01-13T08:16:28.758Z,37.25
2023-01-13T08:18:59.534Z,63.20
2023-01-13T08:21:27.800Z,33.65
2023-01-13T08:23:55.834Z,43.08
2023-01-13T08:26:23.580Z,52.67
2023-01-13T08:28:51.426Z,51.05
2023-01-13T08:31:20.358Z,50.83
2023-01-13T08:33:48.266Z,35.80
2023-01-13T08:36:16.409Z,50.00
2023-01-13T08:38:45.651Z,62.30
2023-01-13T08:41:15.968Z,64.80
2023-01-13T08:43:44.978Z,38.85
2023-01-13T08:46:13.102Z,76.53
2023-01-13T08:48:41.469Z,36.08
2023-01-13T08:51:10.425Z,39.92
2023-01-13T08:53:38.174Z,40.58
2023-01-13T08:56:13.605Z,29.90
2023-01-13T08:58:42.344Z,37.65
2023-01-13T09:01:11.778Z,38.88
2023-01-13T09:03:41.861Z,53.00
2023-01-13T09:06:09.579Z,64.95
2023-01-13T09:08:37.432Z,52.30
2023-01-13T09:11:25.241Z,51.95
2023-01-13T09:13:53.250Z,72.20
2023-01-13T09:16:21.004Z,90.30
2023-01-13T09:18:48.786Z,36.05
2023-01-13T09:21:16.857Z,62.42
2023-01-13T09:23:44.452Z,55.72
2023-01-13T09:26:12.726Z,54.08
2023-01-13T09:28:40.429Z,78.20
2023-01-13T09:31:08.963Z,70.57
2023-01-13T09:33:55.023Z,55.28
2023-01-13T09:36:22.605Z,48.28
2023-01-13T09:38:50.990Z,43.80
2023-01-13T09:41:43.139Z,42.03
2023-01-13T09:44:17.021Z,52.92
2023-01-13T09:46:49.668Z,56.35
2023-01-13T09:49:31.309Z,22.73
2023-01-13T09:52:11.283Z,53.38
2023-01-13T09:54:44.639Z,51.75
2023-01-13T09:57:15.690Z,54.70
2023-01-13T09:59:44.293Z,39.78
2023-01-13T10:02:41.795Z,58.50
2023-01-13T10:05:20.539Z,45.50
2023-01-13T10:07:53.413Z,38.45
2023-01-13T10:10:42.888Z,52.92
2023-01-13T10:13:30.737Z,54.75
2023-01-13T10:16:24.615Z,89.38
2023-01-13T10:19:18.288Z,47.55
2023-01-13T10:22:43.938Z,39.33
2023-01-13T10:25:33.034Z,74.47
2023-01-13T10:28:11.157Z,54.35
2023-01-13T10:30:44.661Z,67.95
2023-01-13T10:33:29.953Z,67.35
2023-01-13T10:36:14.317Z,70.25
2023-01-13T10:38:41.693Z,50.67
2023-01-13T10:41:18.509Z,57.88
2023-01-13T10:43:57.403Z,36.30
2023-01-13T10:46:25.069Z,60.33
2023-01-13T10:48:55.810Z,83.68
2023-01-13T10:51:45.463Z,40.90
2023-01-13T10:54:31.244Z,65.10
2023-01-13T10:57:21.194Z,57.40
2023-01-13T10:59:51.104Z,118.80
2023-01-13T11:02:29.736Z,46.30
2023-01-13T11:04:58.472Z,45.50
2023-01-13T11:07:32.877Z,40.50
2023-01-13T11:10:28.703Z,48.83
2023-01-13T11:13:16.122Z,45.78
2023-01-13T11:16:01.954Z,99.38
2023-01-13T11:18:51.851Z,51.70
2023-01-13T11:21:29.006Z,57.03
2023-01-13T11:24:10.822Z,48.25
2023-01-13T11:26:54.513Z,50.53
2023-01-13T11:29:37.731Z,50.88
2023-01-13T11:32:28.951Z,74.35
2023-01-13T11:35:02.232Z,43.20
2023-01-13T11:37:35.132Z,37.33
2023-01-13T11:40:24.916Z,82.10
2023-01-13T11:43:14.417Z,119.20
2023-01-13T11:45:51.185Z,60.90
2023-01-13T11:48:23.636Z,86.90
2023-01-13T11:51:09.502Z,60.97
2023-01-13T11:54:08.302Z,70.22
2023-01-13T11:56:48.247Z,45.55
2023-01-13T11:59:38.980Z,128.85
2023-01-13T12:02:34.009Z,75.65
2023-01-13T12:07:47.732Z,61.42
2023-01-13T12:10:26.274Z,69.40
2023-01-13T12:13:15.829Z,60.35
2023-01-13T12:15:56.260Z,41.70
2023-01-13T12:18:35.199Z,55.28
2023-01-13T12:21:09.457Z,77.95
2023-01-13T12:23:48.431Z,66.22
2023-01-13T12:26:17.455Z,49.10
2023-01-13T12:29:07.070Z,43.72
2023-01-13T12:31:40.470Z,53.70
2023-01-13T12:34:20.013Z,38.28
2023-01-13T12:37:24.662Z,62.47
2023-01-13T12:40:23.646Z,41.58
2023-01-13T12:43:38.884Z,48.53
2023-01-13T12:46:21.954Z,41.97
2023-01-13T12:48:57.109Z,78.80
2023-01-13T12:51:33.148Z,56.05
2023-01-13T12:54:02.833Z,39.47
2023-01-13T12:56:45.115Z,48.67
2023-01-13T12:59:21.474Z,59.97
2023-01-13T13:04:51.796Z,65.95
2023-01-13T13:07:31.597Z,45.83
2023-01-13T13:10:03.326Z,90.80
2023-01-13T13:13:01.061Z,59.22
2023-01-13T13:15:34.229Z,85.13
2023-01-13T13:18:24.453Z,38.20
2023-01-13T13:21:11.615Z,71.15
2023-01-13T13:23:48.474Z,62.33
2023-01-13T13:26:21.989Z,80.28
2023-01-13T13:29:15.348Z,106.55
2023-01-13T13:32:04.640Z,41.65
2023-01-13T13:35:05.770Z,32.60
2023-01-13T13:37:54.756Z,47.65
2023-01-13T13:40:41.660Z,99.88
2023-01-13T13:43:31.943Z,36.65
2023-01-13T13:46:18.101Z,81.10
2023-01-13T13:48:55.374Z,51.75
2023-01-13T13:51:29.350Z,73.53
2023-01-13T13:53:59.355Z,51.75
2023-01-13T13:56:30.482Z,62.00
2023-01-13T13:58:57.933Z,59.20
2023-01-13T14:01:27.303Z,48.53
2023-01-13T14:04:12.129Z,45.63
2023-01-13T14:06:39.866Z,57.95
2023-01-13T14:09:17.426Z,52.75
2023-01-13T14:11:45.287Z,45.55
2023-01-13T14:14:17.386Z,38.80
2023-01-13T14:16:45.095Z,29.33
2023-01-13T14:19:36.077Z,27.30
2023-01-13T14:22:05.651Z,56.97
2023-01-13T14:24:33.658Z,21.77
2023-01-13T14:27:15.467Z,79.05
2023-01-13T14:29:44.058Z,31.38
2023-01-13T14:32:18.576Z,38.08
2023-01-13T14:34:48.572Z,51.45
2023-01-13T14:37:33.291Z,76.72
2023-01-13T14:40:01.196Z,72.88
2023-01-13T14:42:29.857Z,38.30
2023-01-13T14:44:58.056Z,61.13
2023-01-13T14:47:32.874Z,21.70
2023-01-13T14:50:12.628Z,14.90
2023-01-13T14:52:57.331Z,64.70
2023-01-13T14:55:40.972Z,42.60
2023-01-13T15:01:36.747Z,25.60
2023-01-13T15:04:18.340Z,48.33
2023-01-13T15:06:51.963Z,28.25
2023-01-13T15:09:28.625Z,29.13
2023-01-13T15:11:58.774Z,74.45
2023-01-13T15:16:58.260Z,34.60
2023-01-13T15:19:25.855Z,74.63
2023-01-13T15:21:56.822Z,43.95
2023-01-13T15:24:24.696Z,89.25
2023-01-13T15:26:52.467Z,28.70
2023-01-13T15:29:20.888Z,34.67
2023-01-13T15:31:51.220Z,20.00
2023-01-13T15:34:18.679Z,18.48
2023-01-13T15:36:46.386Z,38.67
2023-01-13T15:39:15.648Z,50.33
2023-01-13T15:42:01.778Z,97.60
2023-01-13T15:44:48.155Z,97.75
2023-01-13T15:47:16.212Z,54.30
2023-01-13T15:49:48.661Z,84.90
2023-01-13T15:52:21.974Z,93.47
2023-01-13T15:54:50.613Z,27.85
2023-01-13T15:57:26.047Z,22.83
2023-01-13T15:59:58.320Z,24.20
2023-01-13T16:02:26.216Z,17.73
2023-01-13T16:04:56.900Z,21.60
2023-01-13T16:07:26.121Z,21.55
2023-01-13T16:09:53.973Z,91.05
2023-01-13T16:12:21.634Z,87.65
2023-01-13T16:14:49.469Z,22.23
2023-01-13T16:17:23.846Z,32.70
2023-01-13T16:19:51.954Z,28.23
2023-01-13T16:22:20.154Z,13.43
2023-01-13T16:24:48.449Z,19.42
2023-01-13T16:27:15.742Z,19.73
2023-01-13T16:29:44.556Z,21.67
2023-01-13T16:32:12.576Z,17.40
2023-01-13T16:34:40.138Z,18.02
2023-01-13T16:37:19.140Z,14.02
2023-01-13T16:39:47.015Z,21.02
2023-01-13T16:42:14.407Z,23.15
2023-01-13T16:44:42.167Z,17.10
2023-01-13T16:47:17.662Z,18.98
2023-01-13T16:49:46.310Z,13.88
2023-01-13T16:52:13.917Z,15.63
2023-01-13T16:54:41.610Z,13.13
2023-01-13T16:57:13.212Z,19.80
2023-01-13T16:59:40.432Z,13.30
2023-01-13T17:02:20.175Z,31.80
2023-01-13T17:04:48.534Z,10.43
2023-01-13T17:07:17.910Z,49.25
2023-01-13T17:09:45.692Z,15.60
2023-01-13T17:12:13.228Z,7.05
2023-01-13T17:14:43.284Z,14.15
2023-01-13T17:17:24.344Z,11.20
2023-01-13T17:19:53.922Z,17.65
2023-01-13T17:22:23.352Z,10.57
2023-01-13T17:24:51.257Z,14.13
2023-01-13T17:27:21.156Z,6.45
2023-01-13T17:29:49.815Z,12.52
2023-01-13T17:32:20.259Z,7.18
2023-01-13T17:34:48.292Z,10.65
2023-01-13T17:37:16.150Z,4.40
2023-01-13T17:39:44.605Z,16.75
2023-01-13T17:42:12.420Z,12.60
2023-01-13T17:44:40.176Z,7.30
2023-01-13T17:47:07.828Z,5.22
2023-01-13T17:49:35.399Z,4.75
2023-01-13T17:52:03.180Z,8.55
2023-01-13T17:54:31.045Z,7.80
2023-01-13T17:56:58.807Z,10.07
2023-01-13T17:59:26.314Z,5.03
2023-01-13T18:01:53.783Z,8.32
2023-01-13T18:04:23.775Z,6.57
2023-01-13T18:06:51.654Z,8.65
2023-01-13T18:09:23.500Z,5.15
2023-01-13T18:11:51.290Z,10.98
2023-01-13T18:14:22.340Z,7.22
2023-01-13T18:16:50.092Z,4.70
2023-01-13T18:19:36.346Z,5.10
2023-01-13T18:22:22.228Z,4.07
2023-01-13T18:25:08.226Z,9.25
2023-01-13T18:27:38.308Z,6.75
2023-01-13T18:30:07.167Z,5.53
2023-01-13T18:32:35.656Z,7.20
2023-01-13T18:35:07.285Z,5.00
2023-01-13T18:37:36.314Z,7.88
2023-01-13T18:40:04.876Z,7.22
2023-01-13T18:42:51.205Z,4.68
2023-01-13T18:45:24.296Z,6.75
2023-01-13T18:47:52.107Z,4.90
2023-01-13T18:50:19.989Z,4.50
2023-01-13T18:52:47.557Z,4.07
2023-01-13T18:55:15.415Z,4.43
2023-01-13T18:57:42.934Z,3.40
2023-01-13T19:00:12.679Z,6.25
2023-01-13T19:02:40.572Z,3.72
2023-01-13T19:05:08.674Z,4.00
2023-01-13T19:07:37.622Z,6.13
2023-01-13T19:10:06.333Z,5.53
2023-01-13T19:12:34.368Z,3.67
2023-01-13T19:15:02.753Z,3.90
2023-01-13T19:17:34.655Z,3.78
2023-01-13T19:20:02.224Z,4.18
2023-01-13T19:22:32.812Z,6.70
2023-01-13T19:25:01.857Z,7.47
2023-01-13T19:27:29.933Z,3.92
2023-01-13T19:30:00.663Z,8.50
2023-01-13T19:32:30.734Z,5.47
2023-01-13T19:34:59.840Z,5.75
2023-01-13T19:37:31.631Z,5.47
2023-01-13T19:39:59.655Z,12.57
2023-01-13T19:42:46.075Z,4.15
2023-01-13T19:45:26.760Z,4.70
2023-01-13T19:47:57.343Z,6.63
2023-01-13T19:50:25.345Z,5.40
2023-01-13T19:52:53.032Z,4.47
2023-01-13T19:55:20.800Z,8.00
2023-01-13T19:57:48.468Z,4.82
2023-01-13T20:00:20.518Z,5.45
2023-01-13T20:02:49.688Z,5.28
2023-01-13T20:05:21.956Z,4.35
2023-01-13T20:07:50.358Z,3.17
2023-01-13T20:10:19.968Z,6.20
2023-01-13T20:12:47.599Z,3.70
2023-01-13T20:15:15.525Z,4.38
2023-01-13T20:17:43.141Z,6.47
2023-01-13T20:20:12.212Z,3.80
2023-01-13T20:22:40.524Z,4.93
2023-01-13T20:25:08.590Z,3.88
2023-01-13T20:27:36.490Z,5.03
2023-01-13T20:30:04.261Z,4.40
2023-01-13T20:32:32.428Z,4.75
2023-01-13T20:34:59.980Z,7.20
2023-01-13T20:37:27.847Z,4.13
2023-01-13T20:39:57.510Z,9.27
2023-01-13T20:42:32.170Z,3.78
2023-01-13T20:45:00.628Z,7.13
2023-01-13T20:47:29.774Z,5.00
2023-01-13T20:49:57.520Z,9.73
2023-01-13T20:52:25.233Z,4.70
2023-01-13T20:54:52.861Z,7.03
2023-01-13T20:57:20.575Z,7.05
2023-01-13T20:59:48.429Z,5.07
2023-01-13T21:02:16.943Z,5.32
2023-01-13T21:04:44.526Z,4.03
2023-01-13T21:07:12.339Z,4.60
2023-01-13T21:09:40.003Z,4.60
2023-01-13T21:12:26.248Z,3.20
2023-01-13T21:15:12.342Z,7.10
2023-01-13T21:17:58.383Z,5.43
2023-01-13T21:20:26.191Z,4.18
2023-01-13T21:22:53.890Z,3.95
2023-01-13T21:25:21.429Z,3.50
2023-01-13T21:27:49.019Z,6.25
2023-01-13T21:30:18.017Z,4.78
2023-01-13T21:32:46.373Z,4.43
2023-01-13T21:35:14.981Z,3.42
2023-01-13T21:37:43.639Z,4.63
2023-01-13T21:40:14.492Z,5.93
2023-01-13T21:43:00.338Z,4.88
2023-01-13T21:46:05.400Z,3.38
2023-01-13T21:48:32.980Z,4.32
2023-01-13T21:51:01.508Z,5.15
2023-01-13T21:53:29.173Z,5.57
2023-01-13T21:55:56.742Z,5.28
2023-01-13T21:58:24.519Z,7.07
2023-01-13T22:00:52.758Z,4.40
2023-01-13T22:03:20.478Z,4.70
2023-01-13T22:05:54.631Z,3.53
2023-01-13T22:08:22.551Z,4.30
2023-01-13T22:11:07.714Z,3.20
2023-01-13T22:13:53.827Z,3.03
2023-01-13T22:16:21.821Z,4.32
2023-01-13T22:18:49.624Z,5.47
2023-01-13T22:21:20.592Z,4.57
2023-01-13T22:23:48.393Z,4.03
2023-01-13T22:26:16.184Z,2.72
2023-01-13T22:28:44.308Z,3.30
2023-01-13T22:31:13.533Z,4.65
2023-01-13T22:33:42.583Z,4.20
2023-01-13T22:36:11.260Z,4.40
2023-01-13T22:38:39.005Z,3.42
2023-01-13T22:41:07.746Z,4.68
2023-01-13T22:43:35.892Z,3.72
2023-01-13T22:46:06.957Z,5.93
2023-01-13T22:48:34.985Z,5.82
2023-01-13T22:51:09.702Z,3.70
2023-01-13T22:53:37.990Z,5.88
2023-01-13T22:56:05.890Z,6.10
2023-01-13T22:58:33.566Z,5.25
2023-01-13T23:01:16.679Z,3.90
2023-01-13T23:03:47.771Z,2.78
2023-01-13T23:06:16.007Z,3.65
2023-01-13T23:08:43.816Z,4.72
2023-01-13T23:11:13.340Z,11.63
2023-01-13T23:13:43.240Z,5.30
2023-01-13T23:16:16.993Z,5.35
2023-01-13T23:18:48.373Z,3.90
2023-01-13T23:21:24.752Z,4.95
2023-01-13T23:26:20.582Z,2.05
2023-01-13T23:28:48.671Z,3.97
2023-01-13T23:31:19.895Z,5.72
2023-01-13T23:33:48.083Z,5.40
2023-01-13T23:36:18.237Z,3.72
2023-01-13T23:41:15.091Z,4.95
2023-01-13T23:43:42.995Z,5.20
2023-01-13T23:46:16.607Z,1.80
2023-01-13T23:48:44.378Z,3.15
2023-01-13T23:51:13.736Z,4.72
2023-01-13T23:53:43.181Z,4.55
2023-01-13T23:56:19.793Z,5.15
2023-01-13T23:58:47.724Z,3.85
